Time;durP1;ratioP1;P1;durP2;ratioP2;P2;SDS_P1;SDS_P2;PMS_P1;PMS_P2;Temp;Humidity;BMP_temperature;BMP_pressure;BME280_temperature;BME280_humidity;BME280_pressure;Samples;Min_cycle;Max_cycle;Signal;HPM_P1;HPM_P2
2024/04/05 00:00:13;;;;;;;9.85;2.25;;;12.00;99.90;;;11.39;100.00;100252.13;4135848;28;20018;-58
2024/04/05 00:02:14;;;;;;;11.07;2.67;;;12.00;99.90;;;11.41;100.00;100242.19;4136052;28;20516;-59
2024/04/05 00:04:15;;;;;;;8.63;2.40;;;12.00;99.90;;;11.44;100.00;100236.56;4134795;28;20019;-58
2024/04/05 00:06:16;;;;;;;5.78;2.20;;;12.00;99.90;;;11.44;100.00;100227.84;4132936;28;20034;-59
2024/04/05 00:08:17;;;;;;;7.65;2.80;;;12.10;99.90;;;11.47;100.00;100232.75;4136159;28;20036;-58
2024/04/05 00:10:18;;;;;;;7.68;2.55;;;12.10;99.90;;;11.49;100.00;100214.94;4135896;28;20035;-59
2024/04/05 00:12:19;;;;;;;6.35;1.88;;;12.10;99.90;;;11.49;100.00;100215.78;4136183;28;20030;-59
2024/04/05 00:14:20;;;;;;;14.38;3.38;;;12.10;99.90;;;11.52;100.00;100211.94;4135748;28;20034;-58
2024/04/05 00:16:20;;;;;;;13.30;3.25;;;12.20;99.90;;;11.52;100.00;100201.38;4146462;28;20405;-58
2024/04/05 00:18:22;;;;;;;8.98;2.55;;;12.20;99.90;;;11.52;100.00;100199.56;4136542;28;20433;-58
2024/04/05 00:20:22;;;;;;;6.07;2.20;;;12.20;99.90;;;11.53;100.00;100193.28;4135964;28;20078;-58
2024/04/05 00:22:24;;;;;;;5.25;1.83;;;12.20;99.90;;;11.51;100.00;100187.34;4136106;28;20074;-59
2024/04/05 00:24:25;;;;;;;6.72;2.40;;;12.20;99.90;;;11.53;100.00;100187.16;4137096;28;20026;-59
2024/04/05 00:26:25;;;;;;;7.07;2.55;;;12.20;99.90;;;11.52;100.00;100177.63;4148512;28;20022;-58
2024/04/05 00:28:29;;;;;;;7.35;2.47;;;12.10;99.90;;;11.52;100.00;100172.34;4139314;28;20086;-59
2024/04/05 00:30:30;;;;;;;13.52;2.45;;;12.10;99.90;;;11.53;100.00;100181.88;4138922;28;20031;-59
2024/04/05 00:32:31;;;;;;;7.80;2.60;;;12.10;99.90;;;11.52;100.00;100167.06;4138941;28;20394;-59
2024/04/05 00:34:32;;;;;;;9.38;2.25;;;12.20;99.90;;;11.54;100.00;100178.25;4138821;28;20440;-60
2024/04/05 00:36:33;;;;;;;12.52;3.03;;;12.20;99.90;;;11.55;100.00;100182.53;4146203;28;20433;-59
2024/04/05 00:38:34;;;;;;;12.85;3.38;;;12.20;99.90;;;11.56;100.00;100185.00;4139021;28;20038;-59
2024/04/05 00:40:35;;;;;;;9.60;2.42;;;12.20;99.90;;;11.58;100.00;100177.75;4138844;28;20026;-58
2024/04/05 00:42:37;;;;;;;5.80;2.15;;;12.20;99.90;;;11.59;100.00;100170.59;4138720;28;20036;-59
2024/04/05 00:44:38;;;;;;;9.05;2.88;;;12.20;99.90;;;11.66;100.00;100168.91;4138723;28;20109;-59
2024/04/05 00:46:38;;;;;;;10.63;1.70;;;12.30;99.90;;;11.71;100.00;100171.88;4143399;28;20580;-58
2024/04/05 00:48:39;;;;;;;12.73;3.35;;;12.30;99.90;;;11.73;100.00;100172.53;4138767;28;20486;-58
2024/04/05 00:50:40;;;;;;;13.05;2.80;;;12.30;99.90;;;11.80;100.00;100170.81;4138643;28;20042;-59
2024/04/05 00:52:41;;;;;;;5.00;2.10;;;12.40;99.90;;;11.85;100.00;100157.91;4138839;28;20026;-58
2024/04/05 00:54:43;;;;;;;6.93;2.00;;;12.40;99.90;;;11.87;100.00;100149.78;4139266;28;20041;-58
2024/04/05 00:56:43;;;;;;;8.88;2.78;;;12.50;99.90;;;11.89;100.00;100143.31;4137358;28;20030;-59
2024/04/05 00:58:44;;;;;;;10.50;2.08;;;12.50;99.90;;;11.93;100.00;100141.97;4138244;28;20041;-59
2024/04/05 01:00:45;;;;;;;10.05;1.92;;;12.50;99.90;;;11.98;100.00;100136.13;4138816;28;20023;-58
2024/04/05 01:02:46;;;;;;;9.30;2.00;;;12.60;99.90;;;12.03;100.00;100133.78;4138723;28;20081;-58
2024/04/05 01:04:47;;;;;;;9.18;2.65;;;12.60;99.90;;;12.09;100.00;100128.59;4138520;28;20076;-59
2024/04/05 01:06:48;;;;;;;16.85;3.00;;;12.70;99.90;;;12.14;100.00;100120.13;4138352;28;20030;-58
2024/04/05 01:08:49;;;;;;;5.72;2.00;;;12.70;99.90;;;12.18;100.00;100113.47;4138532;28;20063;-59
2024/04/05 01:10:49;;;;;;;6.28;2.05;;;12.80;99.90;;;12.15;100.00;100113.84;4142297;28;20037;-59
2024/04/05 01:13:05;;;;;;;8.35;2.33;;;12.70;99.90;;;12.21;100.00;100116.56;4144227;28;20030;-59
2024/04/05 01:15:06;;;;;;;12.43;2.45;;;12.80;99.90;;;12.32;100.00;100114.47;4137978;28;20034;-59
2024/04/05 01:17:07;;;;;;;7.50;2.42;;;12.90;99.90;;;12.37;100.00;100123.50;4138466;28;20092;-59
2024/04/05 01:19:08;;;;;;;5.40;2.20;;;12.90;99.90;;;12.37;100.00;100118.22;4138438;28;20026;-59
2024/04/05 01:21:10;;;;;;;6.55;1.95;;;13.00;99.90;;;12.45;100.00;100120.78;4137109;28;20490;-59
2024/04/05 01:23:16;;;;;;;5.88;1.58;;;13.00;99.90;;;12.46;100.00;100121.56;4138331;28;20068;-59
2024/04/05 01:25:19;;;;;;;4.47;1.70;;;13.00;99.90;;;12.52;100.00;100118.19;4138343;28;20500;-59
2024/04/05 01:27:19;;;;;;;6.45;2.17;;;13.10;99.90;;;12.55;100.00;100116.00;4138257;28;20498;-59
2024/04/05 01:29:20;;;;;;;4.38;2.05;;;13.10;99.90;;;12.59;100.00;100113.81;4137995;28;20023;-59
2024/04/05 01:31:21;;;;;;;5.03;1.63;;;13.20;99.90;;;12.60;100.00;100118.91;4138245;28;20030;-59
2024/04/05 01:33:22;;;;;;;5.55;2.50;;;13.20;99.90;;;12.63;100.00;100126.50;4138241;28;20036;-59
2024/04/05 01:35:24;;;;;;;5.85;2.45;;;13.20;99.90;;;12.66;100.00;100117.38;4137518;28;20042;-58
2024/04/05 01:37:24;;;;;;;7.50;2.03;;;13.20;99.90;;;12.70;100.00;100121.28;4136420;28;20035;-59
2024/04/05 01:39:25;;;;;;;7.28;1.75;;;13.30;99.90;;;12.70;100.00;100122.09;4137928;28;20049;-59
2024/04/05 01:41:26;;;;;;;3.33;1.23;;;13.30;99.90;;;12.70;100.00;100124.75;4138052;28;20026;-59
2024/04/05 01:43:27;;;;;;;4.93;1.77;;;13.30;99.90;;;12.71;100.00;100117.66;4138035;28;20030;-58
2024/04/05 01:45:28;;;;;;;6.10;2.08;;;13.30;99.90;;;12.75;100.00;100126.88;4137676;28;20023;-58
2024/04/05 01:47:29;;;;;;;7.40;1.95;;;13.30;99.90;;;12.73;100.00;100120.91;4137628;28;20050;-58
2024/04/05 01:49:29;;;;;;;7.28;1.77;;;13.40;99.90;;;12.75;100.00;100129.50;4137940;28;20027;-58
2024/04/05 01:51:30;;;;;;;7.05;2.00;;;13.40;99.90;;;12.74;100.00;100123.41;4137856;28;20045;-58
2024/04/05 01:53:31;;;;;;;7.88;1.90;;;13.30;99.90;;;12.75;100.00;100129.50;4137755;28;20035;-59
2024/04/05 01:55:32;;;;;;;10.32;2.47;;;13.30;99.90;;;12.75;100.00;100125.00;4142359;28;20026;-59
2024/04/05 01:57:37;;;;;;;5.85;1.92;;;13.40;99.90;;;12.77;100.00;100124.84;4137936;28;20022;-59
2024/04/05 01:59:38;;;;;;;4.60;1.42;;;13.40;99.90;;;12.73;100.00;100116.44;4137620;28;20023;-59
2024/04/05 02:01:39;;;;;;;5.10;1.75;;;13.40;99.90;;;12.72;100.00;100114.00;4137740;28;20027;-59
2024/04/05 02:03:40;;;;;;;6.45;2.03;;;13.40;99.90;;;12.69;100.00;100115.16;4137565;28;20029;-59
2024/04/05 02:05:40;;;;;;;4.75;1.52;;;13.30;99.90;;;12.72;100.00;100116.66;4137970;28;20098;-59
2024/04/05 02:07:41;;;;;;;7.03;3.35;;;13.30;99.90;;;12.71;100.00;100112.34;4137838;28;20023;-59
2024/04/05 02:09:46;;;;;;;13.52;4.95;;;13.30;99.90;;;12.73;100.00;100115.63;4137725;28;20022;-59
2024/04/05 02:11:47;;;;;;;9.10;3.45;;;13.30;99.90;;;12.72;100.00;100121.94;4137515;28;20573;-59
2024/04/05 02:13:47;;;;;;;9.10;2.83;;;13.30;99.90;;;12.71;100.00;100117.66;4137474;28;20034;-59
2024/04/05 02:15:48;;;;;;;7.25;2.00;;;13.30;99.90;;;12.71;100.00;100120.28;4137454;28;20397;-59
2024/04/05 02:17:49;;;;;;;5.35;1.60;;;13.30;99.90;;;12.74;100.00;100114.63;4137459;28;20506;-59
2024/04/05 02:19:54;;;;;;;5.53;2.08;;;13.30;99.90;;;12.78;100.00;100111.41;4137332;28;20018;-59
2024/04/05 02:21:55;;;;;;;6.82;1.95;;;13.30;99.90;;;12.85;100.00;100086.84;4137528;28;20090;-59
2024/04/05 02:23:56;;;;;;;10.27;2.97;;;13.40;99.90;;;12.94;100.00;100081.25;4137388;28;20490;-59
2024/04/05 02:25:56;;;;;;;9.18;2.65;;;13.50;99.90;;;13.04;100.00;100091.56;4137375;28;20098;-59
2024/04/05 02:27:57;;;;;;;9.02;2.88;;;13.60;99.90;;;13.06;100.00;100108.06;4137198;28;20034;-59
2024/04/05 02:29:58;;;;;;;7.95;2.40;;;13.60;99.90;;;13.14;100.00;100100.06;4137314;28;20018;-59
2024/04/05 02:31:59;;;;;;;8.45;2.55;;;13.70;99.90;;;13.24;100.00;100114.63;4137447;28;20033;-59
2024/04/05 02:34:02;;;;;;;8.68;2.78;;;13.80;99.90;;;13.22;100.00;100127.22;4140010;28;20044;-59
2024/04/05 02:36:03;;;;;;;11.15;2.42;;;13.80;99.90;;;13.25;100.00;100124.22;4140042;28;20066;-59
2024/04/05 02:38:04;;;;;;;8.50;2.50;;;13.80;99.90;;;13.29;100.00;100120.16;4121140;28;20023;-58
2024/04/05 02:40:07;;;;;;;6.90;2.50;;;13.90;99.90;;;13.41;100.00;100111.72;4121031;28;20027;-59
2024/04/05 02:42:07;;;;;;;8.75;3.00;;;13.90;99.90;;;13.44;100.00;100098.91;4120894;28;20166;-58
2024/04/05 02:44:08;;;;;;;7.88;2.40;;;14.00;99.90;;;13.46;100.00;100104.84;4120681;28;20031;-58
2024/04/05 02:46:09;;;;;;;10.35;2.72;;;14.00;99.90;;;13.55;100.00;100110.84;4120667;28;20592;-59
2024/04/05 02:48:10;;;;;;;10.23;2.22;;;14.10;99.90;;;13.63;100.00;100126.59;4127752;28;20402;-59
2024/04/05 02:50:10;;;;;;;9.88;3.20;;;14.10;99.90;;;13.60;100.00;100130.44;4136907;28;20395;-59
2024/04/05 02:52:11;;;;;;;8.40;2.25;;;14.20;99.90;;;13.62;100.00;100143.53;4136719;28;20485;-59
2024/04/05 02:54:12;;;;;;;6.93;3.20;;;14.20;99.90;;;13.62;100.00;100141.66;4137458;28;20504;-59
2024/04/05 02:56:17;;;;;;;13.75;3.15;;;14.20;99.90;;;13.69;100.00;100155.00;4136721;28;20504;-59
2024/04/05 02:58:18;;;;;;;7.25;1.98;;;14.20;99.90;;;13.71;100.00;100169.69;4136910;28;20041;-59
2024/04/05 03:00:19;;;;;;;11.48;2.60;;;14.30;99.90;;;13.74;100.00;100169.31;4136690;28;20065;-59
2024/04/05 03:02:20;;;;;;;8.48;3.13;;;14.30;99.90;;;13.74;100.00;100163.19;4137042;28;20027;-59
2024/04/05 03:04:21;;;;;;;12.48;2.80;;;14.30;99.90;;;13.75;100.00;100168.31;4136841;28;20018;-59
2024/04/05 03:06:22;;;;;;;10.35;2.17;;;14.30;99.90;;;13.76;100.00;100166.47;4136754;28;20034;-59
2024/04/05 03:08:23;;;;;;;14.57;5.13;;;14.30;99.90;;;13.74;100.00;100166.66;4136556;28;20406;-59
2024/04/05 03:10:23;;;;;;;11.57;2.60;;;14.30;99.90;;;13.73;100.00;100159.72;4136553;28;20022;-59
2024/04/05 03:12:26;;;;;;;11.00;3.17;;;14.30;99.90;;;13.72;100.00;100175.81;4136677;28;20026;-59
2024/04/05 03:14:26;;;;;;;9.70;2.78;;;14.30;99.90;;;13.70;100.00;100177.84;4136290;28;20030;-59
2024/04/05 03:16:27;;;;;;;11.40;2.35;;;14.30;99.90;;;13.65;100.00;100190.84;4136380;28;20030;-59
2024/04/05 03:18:29;;;;;;;14.77;3.28;;;14.20;99.90;;;13.61;100.00;100193.06;4136584;28;20027;-59
2024/04/05 03:20:30;;;;;;;11.43;2.75;;;14.20;99.90;;;13.60;100.00;100183.44;4136553;28;20441;-58
2024/04/05 03:22:31;;;;;;;13.77;3.55;;;14.20;99.90;;;13.53;100.00;100193.16;4136459;28;20102;-58
2024/04/05 03:24:32;;;;;;;11.57;2.97;;;14.10;99.90;;;13.48;100.00;100173.53;4138992;28;20028;-59
2024/04/05 03:26:36;;;;;;;12.70;3.40;;;14.10;99.90;;;13.45;100.00;100177.38;4136356;28;20030;-60
2024/04/05 03:28:37;;;;;;;8.88;3.05;;;14.10;99.90;;;13.42;100.00;100206.06;4138502;28;20385;-59
2024/04/05 03:30:38;;;;;;;12.55;4.20;;;14.00;99.90;;;13.41;100.00;100210.56;4144082;28;20030;-59
2024/04/05 03:32:39;;;;;;;16.83;3.28;;;14.00;99.90;;;13.42;100.00;100214.03;4136257;28;20022;-59
2024/04/05 03:34:40;;;;;;;13.65;3.03;;;14.00;99.90;;;13.43;100.00;100207.72;4136434;28;20038;-59
2024/04/05 03:36:41;;;;;;;10.20;2.65;;;14.00;99.90;;;13.45;100.00;100211.81;4136316;28;20089;-59
2024/04/05 03:38:42;;;;;;;12.95;3.90;;;14.00;99.90;;;13.42;100.00;100219.31;4136142;28;20397;-58
2024/04/05 03:40:42;;;;;;;12.82;2.90;;;14.00;99.90;;;13.44;100.00;100219.97;4136100;28;20057;-59
2024/04/05 03:42:43;;;;;;;17.45;2.67;;;14.00;99.90;;;13.32;100.00;100228.38;4136323;28;20077;-59
2024/04/05 03:44:44;;;;;;;15.27;2.80;;;13.90;99.90;;;13.22;100.00;100219.94;4136034;28;20023;-59
2024/04/05 03:46:47;;;;;;;16.30;3.30;;;13.90;99.90;;;13.18;100.00;100210.72;4136164;28;20082;-58
2024/04/05 03:48:48;;;;;;;10.75;3.38;;;13.80;99.90;;;13.15;100.00;100205.78;4147663;28;20052;-59
2024/04/05 03:50:50;;;;;;;9.27;2.33;;;13.70;99.90;;;13.06;100.00;100209.50;4136883;28;20053;-58
2024/04/05 03:52:51;;;;;;;11.48;3.33;;;13.70;99.90;;;13.03;100.00;100201.94;4136237;28;20038;-58
2024/04/05 03:54:51;;;;;;;9.77;3.03;;;13.60;99.90;;;12.95;100.00;100210.00;4136712;28;20025;-58
2024/04/05 03:56:52;;;;;;;11.10;2.83;;;13.60;99.90;;;12.95;100.00;100202.03;4136114;28;20393;-59
2024/04/05 03:58:53;;;;;;;9.55;2.15;;;13.50;99.90;;;12.93;100.00;100217.28;4135415;28;20073;-58
2024/04/05 04:00:55;;;;;;;11.00;2.30;;;13.50;99.90;;;12.91;100.00;100213.16;4136236;28;20026;-59
2024/04/05 04:02:56;;;;;;;9.45;2.50;;;13.50;99.90;;;12.89;100.00;100215.19;4136083;28;20050;-59
2024/04/05 04:04:56;;;;;;;13.65;3.25;;;13.50;99.90;;;12.94;100.00;100215.44;4136035;28;20038;-58
2024/04/05 04:06:57;;;;;;;12.23;2.08;;;13.50;99.90;;;12.86;100.00;100221.69;4135798;28;20486;-59
2024/04/05 04:08:58;;;;;;;10.73;1.77;;;13.50;99.90;;;12.88;100.00;100222.31;4135971;28;20030;-58
2024/04/05 04:10:59;;;;;;;6.75;1.70;;;13.50;99.90;;;12.86;100.00;100215.56;4138616;28;20030;-59
2024/04/05 04:13:00;;;;;;;8.85;2.65;;;13.50;99.90;;;12.89;100.00;100218.66;4140722;28;20558;-59
2024/04/05 04:15:01;;;;;;;8.23;3.00;;;13.40;99.90;;;12.81;100.00;100208.19;4135708;28;20030;-58
2024/04/05 04:17:02;;;;;;;9.60;2.30;;;13.40;99.90;;;12.78;100.00;100203.25;4136123;28;20034;-59
2024/04/05 04:19:03;;;;;;;7.40;1.50;;;13.40;99.90;;;12.81;100.00;100216.13;4135981;28;20117;-59
2024/04/05 04:21:05;;;;;;;6.90;2.10;;;13.40;99.90;;;12.80;100.00;100218.94;4135878;28;20030;-59
2024/04/05 04:23:06;;;;;;;9.38;1.73;;;13.40;99.90;;;12.79;100.00;100207.53;4135706;28;20022;-58
2024/04/05 04:25:07;;;;;;;6.65;2.05;;;13.40;99.90;;;12.83;100.00;100222.03;4134665;28;20073;-58
2024/04/05 04:27:08;;;;;;;7.97;2.88;;;13.40;99.90;;;12.80;100.00;100221.56;4135873;28;20034;-59
2024/04/05 04:29:09;;;;;;;13.00;3.22;;;13.40;99.90;;;12.77;100.00;100218.31;4142030;28;20029;-59
2024/04/05 04:31:23;;;;;;;8.02;1.85;;;13.40;99.90;;;12.75;100.00;100220.28;4140842;28;20486;-59
2024/04/05 04:33:24;;;;;;;;;;;13.30;99.90;;;12.75;100.00;100224.78;4136376;28;20437;-59
2024/04/05 04:35:25;;;;;;;9.75;2.03;;;13.40;99.90;;;12.80;100.00;100232.16;4135905;28;19963;-59
2024/04/05 04:37:26;;;;;;;9.27;2.75;;;13.40;99.90;;;12.76;100.00;100231.69;4135773;28;20138;-58
2024/04/05 04:39:28;;;;;;;9.52;2.88;;;13.30;99.90;;;12.72;100.00;100243.69;4135697;28;20030;-59
2024/04/05 04:41:29;;;;;;;11.85;3.13;;;13.30;99.90;;;12.74;100.00;100246.94;4134666;28;20065;-59
2024/04/05 04:43:30;;;;;;;9.05;2.30;;;13.30;99.90;;;12.74;100.00;100250.44;4128555;28;20030;-59
2024/04/05 04:45:31;;;;;;;9.45;2.22;;;13.40;99.90;;;12.72;100.00;100256.91;4132547;28;20053;-59
2024/04/05 04:47:32;;;;;;;14.25;2.42;;;13.30;99.90;;;12.70;100.00;100253.59;4122391;28;20054;-58
2024/04/05 04:49:33;;;;;;;12.23;2.72;;;13.30;99.90;;;12.67;100.00;100259.25;4135765;28;20034;-59
2024/04/05 04:51:34;;;;;;;5.60;2.15;;;13.30;99.90;;;12.64;100.00;100262.25;4134565;28;20033;-59
2024/04/05 04:53:35;;;;;;;11.13;2.83;;;13.30;99.90;;;12.63;100.00;100269.38;4135825;28;20065;-58
2024/04/05 04:55:35;;;;;;;9.02;2.50;;;13.20;99.90;;;12.60;100.00;100264.44;4136034;28;20053;-58
2024/04/05 04:57:39;;;;;;;10.18;2.30;;;13.20;99.90;;;12.59;100.00;100267.28;4135644;28;20034;-59
2024/04/05 04:59:40;;;;;;;10.32;2.17;;;13.20;99.90;;;12.52;100.00;100266.34;4138071;28;20018;-59
2024/04/05 05:01:41;;;;;;;8.73;2.88;;;13.20;99.90;;;12.52;100.00;100271.63;4135323;28;20088;-59
2024/04/05 05:03:42;;;;;;;7.57;1.98;;;13.10;99.90;;;12.49;100.00;100283.41;4135618;28;20045;-58
2024/04/05 05:05:43;;;;;;;13.32;3.10;;;13.10;99.90;;;12.46;100.00;100277.66;4135831;28;20026;-58
2024/04/05 05:07:44;;;;;;;10.65;2.40;;;13.10;99.90;;;12.43;100.00;100289.41;4135609;28;20077;-58
2024/04/05 05:09:45;;;;;;;10.15;2.10;;;13.00;99.90;;;12.41;100.00;100274.72;4135531;28;20123;-59
2024/04/05 05:11:47;;;;;;;16.33;2.85;;;13.00;99.90;;;12.44;100.00;100290.25;4135527;28;20049;-58
2024/04/05 05:13:47;;;;;;;12.10;2.70;;;13.00;99.90;;;12.37;100.00;100278.72;4149860;28;20532;-58
2024/04/05 05:15:48;;;;;;;10.18;2.20;;;13.00;99.90;;;12.40;100.00;100267.78;4138328;28;20022;-58
2024/04/05 05:17:49;;;;;;;12.90;2.60;;;12.90;99.90;;;12.36;100.00;100264.69;4138263;28;20034;-59
2024/04/05 05:19:50;;;;;;;6.32;2.00;;;12.90;99.90;;;12.34;100.00;100274.63;4138405;28;20088;-58
2024/04/05 05:21:51;;;;;;;11.90;2.95;;;12.90;99.90;;;12.32;100.00;100275.81;4138382;28;20015;-58
2024/04/05 05:23:52;;;;;;;12.63;3.22;;;12.90;99.90;;;12.29;100.00;100276.97;4138331;28;20026;-59
2024/04/05 05:25:56;;;;;;;9.30;1.98;;;12.90;99.90;;;12.28;100.00;100283.25;4138412;28;20026;-59
2024/04/05 05:27:57;;;;;;;;;;;12.90;99.90;;;12.25;100.00;100266.94;4142817;28;20121;-58
2024/04/05 05:29:58;;;;;;;14.50;3.05;;;12.80;99.90;;;12.29;100.00;100279.63;4143707;28;19919;-59
2024/04/05 05:31:59;;;;;;;9.82;3.13;;;12.90;99.90;;;12.29;100.00;100255.00;4154587;28;20096;-58
2024/04/05 05:33:59;;;;;;;11.60;3.00;;;12.90;99.90;;;12.30;100.00;100264.59;4154333;28;20030;-58
2024/04/05 05:36:00;;;;;;;7.22;2.45;;;12.90;99.90;;;12.26;100.00;100260.66;4165365;28;20037;-59
2024/04/05 05:38:01;;;;;;;7.55;1.95;;;12.90;99.90;;;12.25;100.00;100267.75;4138108;28;20037;-58
2024/04/05 05:40:04;;;;;;;9.77;2.30;;;12.80;99.90;;;12.28;100.00;100264.75;4137994;28;20030;-58
2024/04/05 05:42:05;;;;;;;9.05;2.35;;;12.90;99.90;;;12.33;100.00;100261.59;4138087;28;20081;-58
2024/04/05 05:44:05;;;;;;;10.75;2.35;;;12.90;99.90;;;12.30;100.00;100265.41;4137639;28;20445;-58
2024/04/05 05:46:06;;;;;;;8.40;2.17;;;12.90;99.90;;;12.32;100.00;100273.16;4138002;28;20030;-59
2024/04/05 05:48:07;;;;;;;7.78;2.10;;;12.90;99.90;;;12.34;100.00;100281.72;4144653;28;20034;-58
2024/04/05 05:50:11;;;;;;;8.30;3.42;;;13.00;99.90;;;12.32;100.00;100289.84;4144400;28;20513;-59
2024/04/05 05:52:12;;;;;;;11.80;2.20;;;12.90;99.90;;;12.35;100.00;100280.72;4137923;28;20038;-58
2024/04/05 05:54:13;;;;;;;10.38;1.92;;;12.90;99.90;;;12.33;100.00;100270.34;4139804;28;20038;-58
2024/04/05 05:56:14;;;;;;;9.48;3.63;;;12.90;99.90;;;12.33;100.00;100258.94;4153805;28;20026;-59
2024/04/05 05:58:14;;;;;;;11.82;2.53;;;13.00;99.90;;;12.34;100.00;100258.75;4153929;28;20026;-58
2024/04/05 06:00:17;;;;;;;9.15;2.70;;;13.00;99.90;;;12.36;100.00;100251.47;4153627;28;20026;-58
2024/04/05 06:02:20;;;;;;;6.82;2.63;;;12.90;99.90;;;12.38;100.00;100253.94;4153896;28;20026;-59
2024/04/05 06:04:21;;;;;;;10.13;2.13;;;13.00;99.90;;;12.38;100.00;100256.56;4158466;28;20025;-58
2024/04/05 06:06:25;;;;;;;6.97;2.22;;;13.00;99.90;;;12.39;100.00;100258.22;4149814;28;20124;-58
2024/04/05 06:08:26;;;;;;;7.75;2.47;;;13.00;99.90;;;12.40;100.00;100246.63;4137697;28;20033;-58
2024/04/05 06:10:27;;;;;;;11.63;3.13;;;13.00;99.90;;;12.40;100.00;100254.56;4137751;28;20038;-59
2024/04/05 06:12:29;;;;;;;10.60;2.55;;;13.00;99.90;;;12.44;100.00;100258.50;4137610;28;20026;-58
2024/04/05 06:14:30;;;;;;;7.20;2.13;;;13.00;99.90;;;12.48;100.00;100254.50;4137406;28;20502;-58
2024/04/05 06:16:31;;;;;;;7.22;2.13;;;13.10;99.90;;;12.50;100.00;100273.66;4137407;28;20129;-59
2024/04/05 06:18:32;;;;;;;8.65;2.05;;;13.10;99.90;;;12.52;100.00;100277.75;4137517;28;20023;-58
2024/04/05 06:20:33;;;;;;;10.60;2.33;;;13.10;99.90;;;12.57;100.00;100266.66;4158434;28;20014;-59
2024/04/05 06:22:34;;;;;;;9.10;1.92;;;13.20;99.90;;;12.57;100.00;100285.19;4150957;28;20026;-58
2024/04/05 06:24:35;;;;;;;9.00;1.92;;;13.20;99.90;;;12.59;100.00;100283.16;4137291;28;20037;-59
2024/04/05 06:26:35;;;;;;;7.75;2.28;;;13.20;99.90;;;12.61;100.00;100284.63;4137350;28;20027;-58
2024/04/05 06:28:36;;;;;;;6.70;1.92;;;13.20;99.90;;;12.66;100.00;100292.03;4137107;28;20049;-58
2024/04/05 06:30:37;;;;;;;7.70;2.47;;;13.20;99.90;;;12.68;100.00;100288.19;4143779;28;20042;-59
2024/04/05 06:32:38;;;;;;;8.05;2.63;;;13.30;99.90;;;12.70;100.00;100290.66;4137227;28;20034;-58
2024/04/05 06:34:44;;;;;;;10.82;1.95;;;13.30;99.90;;;12.76;100.00;100295.22;4137271;28;20027;-59
2024/04/05 06:36:46;;;;;;;10.48;1.83;;;13.40;99.90;;;12.85;100.00;100294.13;4137155;28;20464;-60
2024/04/05 06:38:47;;;;;;;6.40;1.60;;;13.40;99.90;;;12.91;100.00;100298.72;4137223;28;20031;-59
2024/04/05 06:40:56;;;;;;;10.50;1.92;;;13.50;99.90;;;12.98;100.00;100304.09;4139506;28;20030;-59
2024/04/05 06:42:57;;;;;;;9.95;2.00;;;13.50;99.90;;;13.04;100.00;100308.66;4137184;28;20019;-59
2024/04/05 06:44:57;;;;;;;6.35;1.85;;;13.60;99.90;;;13.07;100.00;100303.84;4136771;28;20069;-59
2024/04/05 06:46:59;;;;;;;8.45;1.85;;;13.60;99.90;;;13.15;100.00;100298.47;4137032;28;20068;-59
2024/04/05 06:48:59;;;;;;;6.35;2.05;;;13.70;99.90;;;13.19;100.00;100296.28;4150061;28;20037;-58
2024/04/05 06:51:00;;;;;;;6.10;1.42;;;13.70;99.90;;;13.25;100.00;100300.84;4159724;28;20023;-58
2024/04/05 06:53:01;;;;;;;10.02;1.95;;;13.80;99.90;;;13.23;100.00;100295.72;4137089;28;20035;-58
2024/04/05 06:55:02;;;;;;;7.22;1.67;;;13.80;99.90;;;13.35;100.00;100298.72;4148496;28;20073;-58
2024/04/05 06:57:03;;;;;;;7.63;2.30;;;13.90;99.90;;;13.35;100.00;100287.31;4152878;28;20026;-58
2024/04/05 06:59:04;;;;;;;7.15;1.65;;;13.90;99.90;;;13.39;100.00;100304.47;4153120;28;20022;-59
2024/04/05 07:01:05;;;;;;;8.15;1.88;;;13.90;99.90;;;13.42;100.00;100312.06;4156081;28;20033;-58
2024/04/05 07:03:06;;;;;;;8.80;1.90;;;14.00;99.90;;;13.43;100.00;100334.91;4136938;28;20030;-59
2024/04/05 07:05:07;;;;;;;7.03;2.08;;;14.00;99.90;;;13.42;100.00;100335.91;4136705;28;20081;-59
2024/04/05 07:07:08;;;;;;;6.55;1.58;;;14.00;99.90;;;13.41;100.00;100342.22;4136935;28;20041;-59
2024/04/05 07:09:09;;;;;;;7.50;1.42;;;14.00;99.90;;;13.43;100.00;100319.00;4136795;28;20034;-59
2024/04/05 07:11:10;;;;;;;5.97;1.67;;;14.00;99.90;;;13.45;100.00;100304.56;4150726;28;20500;-59
2024/04/05 07:13:11;;;;;;;9.32;2.38;;;14.00;99.90;;;13.51;100.00;100305.66;4147181;28;20025;-59
2024/04/05 07:15:12;;;;;;;7.93;1.80;;;14.10;99.90;;;13.60;100.00;100308.00;4137200;28;20038;-59
2024/04/05 07:17:13;;;;;;;8.13;2.63;;;14.10;99.90;;;13.64;100.00;100327.84;4136210;28;20080;-58
2024/04/05 07:19:17;;;;;;;9.85;2.20;;;14.20;99.90;;;13.67;100.00;100337.25;4136539;28;20482;-59
2024/04/05 07:21:19;;;;;;;11.40;1.98;;;14.20;99.90;;;13.65;100.00;100326.81;4143967;28;20057;-59
2024/04/05 07:23:20;;;;;;;8.50;2.53;;;14.20;99.90;;;13.64;100.00;100334.97;4151505;28;20025;-59
2024/04/05 07:25:23;;;;;;;12.77;2.75;;;14.20;99.90;;;13.69;100.00;100321.97;4136391;28;20018;-59
2024/04/05 07:27:24;;;;;;;7.22;1.67;;;14.20;99.90;;;13.76;100.00;100338.78;4135961;28;20041;-59
2024/04/05 07:29:25;;;;;;;11.00;1.88;;;14.30;99.90;;;13.81;100.00;100336.38;4146254;28;20032;-59
2024/04/05 07:31:25;;;;;;;6.68;1.90;;;14.40;99.90;;;13.84;100.00;100323.59;4152061;28;20033;-59
2024/04/05 07:33:26;;;;;;;8.07;2.00;;;14.40;99.90;;;13.97;100.00;100322.91;4144509;28;20073;-58
2024/04/05 07:35:27;;;;;;;5.82;1.85;;;14.50;99.90;;;14.09;100.00;100333.84;4135821;28;20084;-58
2024/04/05 07:37:28;;;;;;;7.07;1.80;;;14.60;99.90;;;14.17;100.00;100339.03;4135593;28;20034;-58
2024/04/05 07:39:29;;;;;;;11.52;1.73;;;14.70;99.90;;;14.22;100.00;100353.34;4158283;28;20021;-58
2024/04/05 07:41:30;;;;;;;5.15;1.50;;;14.80;99.90;;;14.30;100.00;100350.59;4157712;28;20026;-59
2024/04/05 07:43:31;;;;;;;11.00;2.15;;;14.80;99.90;;;14.35;100.00;100342.91;4135546;28;20556;-59
2024/04/05 07:45:32;;;;;;;9.65;1.58;;;14.90;99.90;;;14.28;100.00;100354.44;4135233;28;20105;-58
2024/04/05 07:47:33;;;;;;;6.82;2.47;;;14.90;99.90;;;14.28;100.00;100355.25;4137161;28;20494;-59
2024/04/05 07:49:34;;;;;;;7.25;1.75;;;14.90;99.90;;;14.31;100.00;100368.16;4151961;28;20023;-59
2024/04/05 07:51:35;;;;;;;9.27;1.85;;;14.90;99.90;;;14.34;100.00;100374.94;4151721;28;20057;-59
2024/04/05 07:53:36;;;;;;;3.90;1.38;;;14.90;99.90;;;14.33;100.00;100375.97;4136104;28;20073;-59
2024/04/05 07:55:37;;;;;;;5.95;1.92;;;14.90;99.90;;;14.40;100.00;100379.47;4148769;28;20060;-59
2024/04/05 07:57:38;;;;;;;9.07;2.50;;;15.00;99.90;;;14.46;100.00;100380.56;4152411;28;20117;-59
2024/04/05 07:59:40;;;;;;;9.82;3.30;;;15.00;99.90;;;14.53;100.00;100384.94;4155504;28;20045;-59
2024/04/05 08:01:44;;;;;;;7.03;2.35;;;15.10;99.90;;;14.59;100.00;100386.00;4144825;28;20501;-59
2024/04/05 08:03:45;;;;;;;9.17;2.53;;;15.10;99.90;;;14.69;100.00;100402.44;4136374;28;20088;-59
2024/04/05 08:05:46;;;;;;;10.02;2.25;;;15.20;99.90;;;14.70;100.00;100391.59;4136122;28;20029;-59
2024/04/05 08:07:47;;;;;;;10.50;2.80;;;15.30;99.90;;;14.74;100.00;100403.50;4136087;28;20038;-59
2024/04/05 08:09:52;;;;;;;9.85;2.00;;;15.40;99.90;;;14.77;100.00;100407.59;4144480;28;20029;-61
2024/04/05 08:11:53;;;;;;;7.63;1.50;;;15.40;99.90;;;14.81;100.00;100414.19;4139070;28;20033;-60
2024/04/05 08:13:54;;;;;;;9.13;2.03;;;15.40;99.90;;;14.74;100.00;100431.88;4152201;28;20034;-60
2024/04/05 08:15:55;;;;;;;10.20;1.83;;;15.40;99.90;;;14.80;100.00;100429.28;4152274;28;20034;-60
2024/04/05 08:17:56;;;;;;;9.02;2.00;;;15.40;99.90;;;14.83;100.00;100430.75;4152203;28;20050;-60